SBDN/PPB METAR and TAF weather

Enter ICAO airport designator
Station Type Date Time Source
SBDN METAR 2020/07/14 01:00 UTC NOAA

SBDN 140100Z 00000KT CAVOK 23/13 Q1017


Station Type Date Time Source
SBDN Decoded METAR 2020/07/14 01:00 UTC NOAA

Presidente Prudente, Brazil (SBDN) 22-07S 051-23W
Jul 13, 2020 - 09:00 PM EDT / 2020.07.14 0100 UTC
Wind: Calm:0
Visibility: greater than 7 mile(s):0
Temperature: 73 F (23 C)
Dew Point: 55 F (13 C)
Relative Humidity: 53%
Pressure (altimeter): 30.03 in. Hg (1017 hPa)
ob: SBDN 140100Z 00000KT CAVOK 23/13 Q1017
cycle: 1

Station Type Date Time Source
SBDN TAF 2020/07/14 00:42 UTC NOAA

TAF SBDN 132100Z 1400/1412 00000KT CAVOK TN18/1405Z TX23/1412Z
RMK PEG

Example: see airport list